sensor_id;sensor_type;location;lat;lon;timestamp;pressure;altitude;pressure_sealevel;temperature
24714;BMP280;12820;51.580;5.010;2022-11-18T00:02:18;99489.69;;;10.38
24714;BMP280;12820;51.580;5.010;2022-11-18T00:07:20;99490.59;;;10.35
24714;BMP280;12820;51.580;5.010;2022-11-18T00:12:22;99492.38;;;10.33
24714;BMP280;12820;51.580;5.010;2022-11-18T00:17:43;99500.75;;;10.32
24714;BMP280;12820;51.580;5.010;2022-11-18T00:22:45;99504.97;;;10.32
24714;BMP280;12820;51.580;5.010;2022-11-18T00:27:47;99505.88;;;10.29
24714;BMP280;12820;51.580;5.010;2022-11-18T00:32:49;99511.78;;;10.29
24714;BMP280;12820;51.580;5.010;2022-11-18T00:37:51;99511.00;;;10.27
24714;BMP280;12820;51.580;5.010;2022-11-18T00:42:53;99517.75;;;10.25
24714;BMP280;12820;51.580;5.010;2022-11-18T00:47:57;99543.75;;;10.24
24714;BMP280;12820;51.580;5.010;2022-11-18T00:52:59;99540.50;;;10.20
24714;BMP280;12820;51.580;5.010;2022-11-18T00:58:01;99552.22;;;10.20
24714;BMP280;12820;51.580;5.010;2022-11-18T01:03:03;99551.38;;;10.21
24714;BMP280;12820;51.580;5.010;2022-11-18T01:08:07;99558.03;;;10.22
24714;BMP280;12820;51.580;5.010;2022-11-18T01:13:14;99567.25;;;10.21
24714;BMP280;12820;51.580;5.010;2022-11-18T01:18:25;99574.75;;;10.23
24714;BMP280;12820;51.580;5.010;2022-11-18T01:23:28;99575.56;;;10.23
24714;BMP280;12820;51.580;5.010;2022-11-18T01:28:31;99579.66;;;10.26
24714;BMP280;12820;51.580;5.010;2022-11-18T01:33:33;99587.97;;;10.28
24714;BMP280;12820;51.580;5.010;2022-11-18T01:38:35;99596.16;;;10.32
24714;BMP280;12820;51.580;5.010;2022-11-18T01:49:02;99599.34;;;10.37
24714;BMP280;12820;51.580;5.010;2022-11-18T01:54:08;99612.66;;;10.39
24714;BMP280;12820;51.580;5.010;2022-11-18T01:59:14;99617.69;;;10.39
24714;BMP280;12820;51.580;5.010;2022-11-18T02:04:18;99616.88;;;10.39
24714;BMP280;12820;51.580;5.010;2022-11-18T02:09:20;99622.78;;;10.38
24714;BMP280;12820;51.580;5.010;2022-11-18T02:14:31;99629.41;;;10.39
24714;BMP280;12820;51.580;5.010;2022-11-18T02:25:07;99646.97;;;10.40
24714;BMP280;12820;51.580;5.010;2022-11-18T02:30:18;99651.22;;;10.38
24714;BMP280;12820;51.580;5.010;2022-11-18T02:35:42;99648.75;;;10.37
24714;BMP280;12820;51.580;5.010;2022-11-18T02:40:49;99650.44;;;10.36
24714;BMP280;12820;51.580;5.010;2022-11-18T02:45:57;99654.69;;;10.34
24714;BMP280;12820;51.580;5.010;2022-11-18T02:51:03;99658.94;;;10.32
24714;BMP280;12820;51.580;5.010;2022-11-18T02:56:08;99673.19;;;10.32
24714;BMP280;12820;51.580;5.010;2022-11-18T03:01:19;99676.53;;;10.32
24714;BMP280;12820;51.580;5.010;2022-11-18T03:06:37;99673.19;;;10.32
24714;BMP280;12820;51.580;5.010;2022-11-18T03:12:01;99681.63;;;10.29
24714;BMP280;12820;51.580;5.010;2022-11-18T03:17:20;99684.19;;;10.28
24714;BMP280;12820;51.580;5.010;2022-11-18T03:22:28;99686.75;;;10.27
24714;BMP280;12820;51.580;5.010;2022-11-18T03:27:38;99700.16;;;10.26
24714;BMP280;12820;51.580;5.010;2022-11-18T03:32:45;99697.72;;;10.24
24714;BMP280;12820;51.580;5.010;2022-11-18T03:37:51;99703.63;;;10.22
24714;BMP280;12820;51.580;5.010;2022-11-18T03:43:01;99712.97;;;10.18
24714;BMP280;12820;51.580;5.010;2022-11-18T03:48:15;99723.03;;;10.17
24714;BMP280;12820;51.580;5.010;2022-11-18T03:53:19;99720.69;;;10.11
24714;BMP280;12820;51.580;5.010;2022-11-18T04:03:53;99733.56;;;10.01
24714;BMP280;12820;51.580;5.010;2022-11-18T04:08:59;99745.38;;;9.97
24714;BMP280;12820;51.580;5.010;2022-11-18T04:14:05;99753.06;;;9.92
24714;BMP280;12820;51.580;5.010;2022-11-18T04:19:08;99760.72;;;9.87
24714;BMP280;12820;51.580;5.010;2022-11-18T04:24:10;99765.84;;;9.84
24714;BMP280;12820;51.580;5.010;2022-11-18T04:29:12;99773.50;;;9.80
24714;BMP280;12820;51.580;5.010;2022-11-18T04:34:14;99778.59;;;9.77
24714;BMP280;12820;51.580;5.010;2022-11-18T04:39:16;99786.16;;;9.74
24714;BMP280;12820;51.580;5.010;2022-11-18T04:44:26;99788.00;;;9.68
24714;BMP280;12820;51.580;5.010;2022-11-18T04:49:29;99802.31;;;9.64
24714;BMP280;12820;51.580;5.010;2022-11-18T04:54:31;99805.78;;;9.60
24714;BMP280;12820;51.580;5.010;2022-11-18T04:59:38;99808.38;;;9.58
24714;BMP280;12820;51.580;5.010;2022-11-18T05:04:41;99818.47;;;9.55
24714;BMP280;12820;51.580;5.010;2022-11-18T05:09:43;99820.25;;;9.51
24714;BMP280;12820;51.580;5.010;2022-11-18T05:14:45;99823.63;;;9.49
24714;BMP280;12820;51.580;5.010;2022-11-18T05:19:51;99832.09;;;9.45
24714;BMP280;12820;51.580;5.010;2022-11-18T05:24:53;99833.84;;;9.43
24714;BMP280;12820;51.580;5.010;2022-11-18T05:29:56;99838.06;;;9.41
24714;BMP280;12820;51.580;5.010;2022-11-18T05:34:58;99840.66;;;9.38
24714;BMP280;12820;51.580;5.010;2022-11-18T05:40:00;99844.88;;;9.36
24714;BMP280;12820;51.580;5.010;2022-11-18T05:45:02;99844.97;;;9.33
24714;BMP280;12820;51.580;5.010;2022-11-18T05:50:05;99858.38;;;9.31
24714;BMP280;12820;51.580;5.010;2022-11-18T05:55:09;99864.25;;;9.30
24714;BMP280;12820;51.580;5.010;2022-11-18T06:00:13;99876.00;;;9.28
24714;BMP280;12820;51.580;5.010;2022-11-18T06:05:16;99878.53;;;9.26
24714;BMP280;12820;51.580;5.010;2022-11-18T06:10:30;99881.91;;;9.25
24714;BMP280;12820;51.580;5.010;2022-11-18T06:15:36;99884.47;;;9.24
24714;BMP280;12820;51.580;5.010;2022-11-18T06:20:40;99888.66;;;9.23
24714;BMP280;12820;51.580;5.010;2022-11-18T06:25:42;99895.38;;;9.22
24714;BMP280;12820;51.580;5.010;2022-11-18T06:30:44;99902.91;;;9.22
24714;BMP280;12820;51.580;5.010;2022-11-18T06:35:47;99921.28;;;9.21
24714;BMP280;12820;51.580;5.010;2022-11-18T06:40:49;99930.56;;;9.19
24714;BMP280;12820;51.580;5.010;2022-11-18T06:45:51;99938.94;;;9.18
24714;BMP280;12820;51.580;5.010;2022-11-18T06:51:12;99947.28;;;9.17
24714;BMP280;12820;51.580;5.010;2022-11-18T06:56:15;99954.03;;;9.15
24714;BMP280;12820;51.580;5.010;2022-11-18T07:01:20;99964.06;;;9.15
24714;BMP280;12820;51.580;5.010;2022-11-18T07:06:24;99971.59;;;9.15
24714;BMP280;12820;51.580;5.010;2022-11-18T07:11:27;99968.25;;;9.14
24714;BMP280;12820;51.580;5.010;2022-11-18T07:16:29;99971.59;;;9.13
24714;BMP280;12820;51.580;5.010;2022-11-18T07:21:31;99982.47;;;9.14
24714;BMP280;12820;51.580;5.010;2022-11-18T07:26:34;99981.63;;;9.13
24714;BMP280;12820;51.580;5.010;2022-11-18T07:31:36;99991.63;;;9.15
24714;BMP280;12820;51.580;5.010;2022-11-18T07:36:40;99999.09;;;9.16
24714;BMP280;12820;51.580;5.010;2022-11-18T07:41:42;99999.94;;;9.17
24714;BMP280;12820;51.580;5.010;2022-11-18T07:46:44;100012.41;;;9.20
24714;BMP280;12820;51.580;5.010;2022-11-18T07:51:47;100016.53;;;9.22
24714;BMP280;12820;51.580;5.010;2022-11-18T07:56:49;100031.50;;;9.25
24714;BMP280;12820;51.580;5.010;2022-11-18T08:01:51;100047.34;;;9.27
24714;BMP280;12820;51.580;5.010;2022-11-18T08:06:53;100058.06;;;9.33
24714;BMP280;12820;51.580;5.010;2022-11-18T08:11:55;100063.81;;;9.38
24714;BMP280;12820;51.580;5.010;2022-11-18T08:16:58;100073.69;;;9.44
24714;BMP280;12820;51.580;5.010;2022-11-18T08:22:00;100068.53;;;9.50
24714;BMP280;12820;51.580;5.010;2022-11-18T08:27:02;100071.78;;;9.55
24714;BMP280;12820;51.580;5.010;2022-11-18T08:32:05;100077.50;;;9.61
24714;BMP280;12820;51.580;5.010;2022-11-18T08:37:07;100087.41;;;9.67
24714;BMP280;12820;51.580;5.010;2022-11-18T08:42:09;100091.38;;;9.75
24714;BMP280;12820;51.580;5.010;2022-11-18T08:47:11;100092.91;;;9.82
24714;BMP280;12820;51.580;5.010;2022-11-18T08:52:13;100087.78;;;9.88
24714;BMP280;12820;51.580;5.010;2022-11-18T08:57:15;100096.75;;;9.97
24714;BMP280;12820;51.580;5.010;2022-11-18T09:02:21;100101.59;;;10.05
24714;BMP280;12820;51.580;5.010;2022-11-18T09:07:23;100106.41;;;10.13
24714;BMP280;12820;51.580;5.010;2022-11-18T09:12:25;100113.72;;;10.21
24714;BMP280;12820;51.580;5.010;2022-11-18T09:17:28;100122.69;;;10.32
24714;BMP280;12820;51.580;5.010;2022-11-18T09:22:30;100117.44;;;10.39
24714;BMP280;12820;51.580;5.010;2022-11-18T09:27:32;100118.94;;;10.48
24714;BMP280;12820;51.580;5.010;2022-11-18T09:32:34;100126.19;;;10.58
24714;BMP280;12820;51.580;5.010;2022-11-18T09:37:36;100133.44;;;10.69
24714;BMP280;12820;51.580;5.010;2022-11-18T09:42:50;100140.66;;;10.81
24714;BMP280;12820;51.580;5.010;2022-11-18T09:47:57;100149.56;;;10.92
24714;BMP280;12820;51.580;5.010;2022-11-18T09:53:11;100145.75;;;11.09
24714;BMP280;12820;51.580;5.010;2022-11-18T09:58:33;100165.25;;;11.33
24714;BMP280;12820;51.580;5.010;2022-11-18T10:03:37;100180.63;;;11.52
24714;BMP280;12820;51.580;5.010;2022-11-18T10:08:58;100186.13;;;11.64
24714;BMP280;12820;51.580;5.010;2022-11-18T10:14:18;100176.66;;;11.72
24714;BMP280;12820;51.580;5.010;2022-11-18T10:19:46;100189.56;;;11.90
24714;BMP280;12820;51.580;5.010;2022-11-18T10:24:56;100184.97;;;12.02
24714;BMP280;12820;51.580;5.010;2022-11-18T10:29:59;100188.91;;;12.10
24714;BMP280;12820;51.580;5.010;2022-11-18T10:35:02;100189.56;;;12.17
24714;BMP280;12820;51.580;5.010;2022-11-18T10:40:05;100198.97;;;12.37
24714;BMP280;12820;51.580;5.010;2022-11-18T10:45:26;100192.78;;;12.72
24714;BMP280;12820;51.580;5.010;2022-11-18T10:50:37;100201.16;;;12.98
24714;BMP280;12820;51.580;5.010;2022-11-18T10:55:40;100201.66;;;13.09
24714;BMP280;12820;51.580;5.010;2022-11-18T11:00:46;100207.13;;;13.19
24714;BMP280;12820;51.580;5.010;2022-11-18T11:06:12;100208.59;;;13.26
24714;BMP280;12820;51.580;5.010;2022-11-18T11:11:22;100224.19;;;13.37
24714;BMP280;12820;51.580;5.010;2022-11-18T11:16:28;100217.50;;;13.58
24714;BMP280;12820;51.580;5.010;2022-11-18T11:21:31;100223.53;;;13.77
24714;BMP280;12820;51.580;5.010;2022-11-18T11:26:42;100225.19;;;13.78
24714;BMP280;12820;51.580;5.010;2022-11-18T11:37:24;100229.50;;;13.98
24714;BMP280;12820;51.580;5.010;2022-11-18T11:53:13;100236.94;;;14.44
24714;BMP280;12820;51.580;5.010;2022-11-18T12:03:41;100236.56;;;14.74
24714;BMP280;12820;51.580;5.010;2022-11-18T12:09:04;100240.72;;;14.56
24714;BMP280;12820;51.580;5.010;2022-11-18T12:14:30;100244.78;;;14.37
24714;BMP280;12820;51.580;5.010;2022-11-18T12:19:40;100248.91;;;14.19
24714;BMP280;12820;51.580;5.010;2022-11-18T12:24:43;100244.50;;;14.03
24714;BMP280;12820;51.580;5.010;2022-11-18T12:35:02;100251.19;;;13.81
24714;BMP280;12820;51.580;5.010;2022-11-18T12:40:07;100257.34;;;13.73
24714;BMP280;12820;51.580;5.010;2022-11-18T12:50:58;100257.72;;;13.63
24714;BMP280;12820;51.580;5.010;2022-11-18T12:56:19;100253.56;;;13.62
24714;BMP280;12820;51.580;5.010;2022-11-18T13:01:25;100267.66;;;13.67
24714;BMP280;12820;51.580;5.010;2022-11-18T13:06:30;100273.34;;;13.73
24714;BMP280;12820;51.580;5.010;2022-11-18T13:11:43;100266.59;;;13.74
24714;BMP280;12820;51.580;5.010;2022-11-18T13:16:47;100273.34;;;13.73
24714;BMP280;12820;51.580;5.010;2022-11-18T13:22:16;100271.44;;;13.80
24714;BMP280;12820;51.580;5.010;2022-11-18T13:28:02;100273.31;;;13.97
24714;BMP280;12820;51.580;5.010;2022-11-18T13:33:09;100282.19;;;14.08
24714;BMP280;12820;51.580;5.010;2022-11-18T13:38:23;100282.75;;;14.15
24714;BMP280;12820;51.580;5.010;2022-11-18T13:43:30;100289.59;;;14.13
24714;BMP280;12820;51.580;5.010;2022-11-18T13:48:36;100286.63;;;14.02
24714;BMP280;12820;51.580;5.010;2022-11-18T13:53:41;100287.88;;;13.91
24714;BMP280;12820;51.580;5.010;2022-11-18T14:04:29;100284.47;;;13.68
24714;BMP280;12820;51.580;5.010;2022-11-18T14:09:31;100293.19;;;13.60
24714;BMP280;12820;51.580;5.010;2022-11-18T14:14:36;100301.13;;;13.50
24714;BMP280;12820;51.580;5.010;2022-11-18T14:19:39;100306.50;;;13.41
24714;BMP280;12820;51.580;5.010;2022-11-18T14:24:42;100313.59;;;13.30
24714;BMP280;12820;51.580;5.010;2022-11-18T14:29:48;100320.63;;;13.21
24714;BMP280;12820;51.580;5.010;2022-11-18T14:35:00;100317.56;;;13.12
24714;BMP280;12820;51.580;5.010;2022-11-18T14:40:03;100319.53;;;13.04
24714;BMP280;12820;51.580;5.010;2022-11-18T14:45:05;100329.84;;;12.97
24714;BMP280;12820;51.580;5.010;2022-11-18T14:50:11;100334.25;;;12.90
24714;BMP280;12820;51.580;5.010;2022-11-18T14:55:13;100342.03;;;12.84
24714;BMP280;12820;51.580;5.010;2022-11-18T15:00:16;100335.47;;;12.79
24714;BMP280;12820;51.580;5.010;2022-11-18T15:05:18;100340.66;;;12.75
24714;BMP280;12820;51.580;5.010;2022-11-18T15:10:20;100359.19;;;12.72
24714;BMP280;12820;51.580;5.010;2022-11-18T15:15:22;100362.72;;;12.67
24714;BMP280;12820;51.580;5.010;2022-11-18T15:20:24;100369.53;;;12.65
24714;BMP280;12820;51.580;5.010;2022-11-18T15:25:26;100364.56;;;12.62
24714;BMP280;12820;51.580;5.010;2022-11-18T15:30:29;100377.22;;;12.59
24714;BMP280;12820;51.580;5.010;2022-11-18T15:35:31;100373.16;;;12.55
24714;BMP280;12820;51.580;5.010;2022-11-18T15:40:33;100381.59;;;12.53
24714;BMP280;12820;51.580;5.010;2022-11-18T15:45:35;100376.66;;;12.50
24714;BMP280;12820;51.580;5.010;2022-11-18T15:50:37;100390.16;;;12.47
24714;BMP280;12820;51.580;5.010;2022-11-18T15:55:39;100392.81;;;12.43
24714;BMP280;12820;51.580;5.010;2022-11-18T16:00:42;100387.00;;;12.41
24714;BMP280;12820;51.580;5.010;2022-11-18T16:05:46;100399.66;;;12.40
24714;BMP280;12820;51.580;5.010;2022-11-18T16:10:54;100405.63;;;12.37
24714;BMP280;12820;51.580;5.010;2022-11-18T16:16:22;100406.50;;;12.35
24714;BMP280;12820;51.580;5.010;2022-11-18T16:21:27;100412.41;;;12.34
24714;BMP280;12820;51.580;5.010;2022-11-18T16:26:30;100414.16;;;12.32
24714;BMP280;12820;51.580;5.010;2022-11-18T16:31:33;100409.16;;;12.30
24714;BMP280;12820;51.580;5.010;2022-11-18T16:36:43;100415.91;;;12.28
24714;BMP280;12820;51.580;5.010;2022-11-18T16:41:45;100417.56;;;12.29
24714;BMP280;12820;51.580;5.010;2022-11-18T16:46:52;100419.31;;;12.27
24714;BMP280;12820;51.580;5.010;2022-11-18T16:51:55;100421.88;;;12.26
24714;BMP280;12820;51.580;5.010;2022-11-18T16:56:58;100429.44;;;12.26
24714;BMP280;12820;51.580;5.010;2022-11-18T17:02:00;100432.81;;;12.25
24714;BMP280;12820;51.580;5.010;2022-11-18T17:07:03;100440.44;;;12.24
24714;BMP280;12820;51.580;5.010;2022-11-18T17:12:06;100438.78;;;12.23
24714;BMP280;12820;51.580;5.010;2022-11-18T17:17:08;100450.53;;;12.22
24714;BMP280;12820;51.580;5.010;2022-11-18T17:22:10;100450.59;;;12.19
24714;BMP280;12820;51.580;5.010;2022-11-18T17:27:12;100458.22;;;12.18
24714;BMP280;12820;51.580;5.010;2022-11-18T17:32:15;100463.31;;;12.15
24714;BMP280;12820;51.580;5.010;2022-11-18T17:37:17;100461.69;;;12.14
24714;BMP280;12820;51.580;5.010;2022-11-18T17:42:19;100472.63;;;12.13
24714;BMP280;12820;51.580;5.010;2022-11-18T17:47:24;100472.66;;;12.11
24714;BMP280;12820;51.580;5.010;2022-11-18T17:52:26;100476.03;;;12.10
24714;BMP280;12820;51.580;5.010;2022-11-18T17:57:30;100484.47;;;12.09
24714;BMP280;12820;51.580;5.010;2022-11-18T18:02:33;100484.53;;;12.07
24714;BMP280;12820;51.580;5.010;2022-11-18T18:07:35;100489.59;;;12.07
24714;BMP280;12820;51.580;5.010;2022-11-18T18:12:37;100497.16;;;12.05
24714;BMP280;12820;51.580;5.010;2022-11-18T18:17:58;100502.22;;;12.05
24714;BMP280;12820;51.580;5.010;2022-11-18T18:23:00;100509.81;;;12.04
24714;BMP280;12820;51.580;5.010;2022-11-18T18:28:03;100503.97;;;12.03
24714;BMP280;12820;51.580;5.010;2022-11-18T18:33:06;100504.78;;;12.04
24714;BMP280;12820;51.580;5.010;2022-11-18T18:38:08;100514.03;;;12.03
24714;BMP280;12820;51.580;5.010;2022-11-18T18:43:11;100508.16;;;12.03
24714;BMP280;12820;51.580;5.010;2022-11-18T18:48:13;100519.94;;;12.02
24714;BMP280;12820;51.580;5.010;2022-11-18T18:53:15;100524.13;;;12.02
24714;BMP280;12820;51.580;5.010;2022-11-18T18:58:17;100525.81;;;12.01
24714;BMP280;12820;51.580;5.010;2022-11-18T19:03:19;100526.66;;;12.02
24714;BMP280;12820;51.580;5.010;2022-11-18T19:08:21;100531.69;;;12.02
24714;BMP280;12820;51.580;5.010;2022-11-18T19:13:27;100530.84;;;12.01
24714;BMP280;12820;51.580;5.010;2022-11-18T19:18:33;100540.91;;;12.03
24714;BMP280;12820;51.580;5.010;2022-11-18T19:23:35;100541.75;;;12.03
24714;BMP280;12820;51.580;5.010;2022-11-18T19:28:37;100547.59;;;12.04
24714;BMP280;12820;51.580;5.010;2022-11-18T19:33:39;100540.03;;;12.04
24714;BMP280;12820;51.580;5.010;2022-11-18T19:38:41;100562.66;;;12.05
24714;BMP280;12820;51.580;5.010;2022-11-18T19:43:43;100559.28;;;12.06
24714;BMP280;12820;51.580;5.010;2022-11-18T19:48:46;100562.63;;;12.07
24714;BMP280;12820;51.580;5.010;2022-11-18T19:53:50;100576.06;;;12.07
24714;BMP280;12820;51.580;5.010;2022-11-18T19:59:00;100574.41;;;12.06
24714;BMP280;12820;51.580;5.010;2022-11-18T20:04:02;100577.72;;;12.08
24714;BMP280;12820;51.580;5.010;2022-11-18T20:09:07;100580.25;;;12.07
24714;BMP280;12820;51.580;5.010;2022-11-18T20:14:10;100579.44;;;12.06
24714;BMP280;12820;51.580;5.010;2022-11-18T20:19:13;100585.31;;;12.07
24714;BMP280;12820;51.580;5.010;2022-11-18T20:24:18;100585.31;;;12.05
24714;BMP280;12820;51.580;5.010;2022-11-18T20:29:20;100586.16;;;12.06
24714;BMP280;12820;51.580;5.010;2022-11-18T20:34:22;100597.91;;;12.05
24714;BMP280;12820;51.580;5.010;2022-11-18T20:39:25;100602.97;;;12.05
24714;BMP280;12820;51.580;5.010;2022-11-18T20:44:27;100602.97;;;12.05
24714;BMP280;12820;51.580;5.010;2022-11-18T20:49:29;100602.16;;;12.05
24714;BMP280;12820;51.580;5.010;2022-11-18T20:54:31;100614.75;;;12.05
24714;BMP280;12820;51.580;5.010;2022-11-18T20:59:34;100607.19;;;12.05
24714;BMP280;12820;51.580;5.010;2022-11-18T21:04:37;100612.25;;;12.05
24714;BMP280;12820;51.580;5.010;2022-11-18T21:09:39;100613.09;;;12.04
24714;BMP280;12820;51.580;5.010;2022-11-18T21:14:41;100615.59;;;12.04
24714;BMP280;12820;51.580;5.010;2022-11-18T21:19:50;100625.69;;;12.04
24714;BMP280;12820;51.580;5.010;2022-11-18T21:24:53;100625.69;;;12.04
24714;BMP280;12820;51.580;5.010;2022-11-18T21:29:56;100625.69;;;12.04
24714;BMP280;12820;51.580;5.010;2022-11-18T21:34:58;100622.34;;;12.02
24714;BMP280;12820;51.580;5.010;2022-11-18T21:40:00;100634.94;;;12.02
24714;BMP280;12820;51.580;5.010;2022-11-18T21:45:02;100639.16;;;12.01
24714;BMP280;12820;51.580;5.010;2022-11-18T21:50:05;100635.81;;;12.01
24714;BMP280;12820;51.580;5.010;2022-11-18T21:55:07;100640.84;;;12.01
24714;BMP280;12820;51.580;5.010;2022-11-18T22:00:09;100651.81;;;12.00
24714;BMP280;12820;51.580;5.010;2022-11-18T22:05:12;100657.66;;;12.00
24714;BMP280;12820;51.580;5.010;2022-11-18T22:10:16;100654.31;;;12.00
24714;BMP280;12820;51.580;5.010;2022-11-18T22:15:19;100656.00;;;11.99
24714;BMP280;12820;51.580;5.010;2022-11-18T22:20:21;100660.22;;;11.99
24714;BMP280;12820;51.580;5.010;2022-11-18T22:25:23;100669.44;;;12.00
24714;BMP280;12820;51.580;5.010;2022-11-18T22:30:25;100666.09;;;11.99
24714;BMP280;12820;51.580;5.010;2022-11-18T22:35:27;100672.81;;;11.99
24714;BMP280;12820;51.580;5.010;2022-11-18T22:40:30;100682.91;;;11.97
24714;BMP280;12820;51.580;5.010;2022-11-18T22:45:32;100687.97;;;11.96
24714;BMP280;12820;51.580;5.010;2022-11-18T22:50:34;100696.47;;;11.92
24714;BMP280;12820;51.580;5.010;2022-11-18T22:55:36;100694.88;;;11.88
24714;BMP280;12820;51.580;5.010;2022-11-18T23:00:38;100710.06;;;11.85
24714;BMP280;12820;51.580;5.010;2022-11-18T23:05:44;100715.19;;;11.81
24714;BMP280;12820;51.580;5.010;2022-11-18T23:10:46;100722.78;;;11.79
24714;BMP280;12820;51.580;5.010;2022-11-18T23:15:49;100727.84;;;11.76
24714;BMP280;12820;51.580;5.010;2022-11-18T23:20:51;100732.09;;;11.74
24714;BMP280;12820;51.580;5.010;2022-11-18T23:25:54;100728.84;;;11.70
24714;BMP280;12820;51.580;5.010;2022-11-18T23:31:06;100739.88;;;11.64
24714;BMP280;12820;51.580;5.010;2022-11-18T23:36:10;100743.31;;;11.59
24714;BMP280;12820;51.580;5.010;2022-11-18T23:41:14;100755.19;;;11.53
24714;BMP280;12820;51.580;5.010;2022-11-18T23:46:18;100758.69;;;11.46
24714;BMP280;12820;51.580;5.010;2022-11-18T23:51:21;100755.44;;;11.39
24714;BMP280;12820;51.580;5.010;2022-11-18T23:56:25;100764.78;;;11.35
